sensor_id;sensor_type;location;lat;lon;timestamp;P1;durP1;ratioP1;P2;durP2;ratioP2
24147;SDS011;12309;51.450;-2.624;2022-12-07T00:00:52;18.20;;;9.63;;
24147;SDS011;12309;51.450;-2.624;2022-12-07T00:03:19;21.70;;;10.27;;
24147;SDS011;12309;51.450;-2.624;2022-12-07T00:05:45;22.93;;;10.53;;
24147;SDS011;12309;51.450;-2.624;2022-12-07T00:08:11;23.40;;;9.93;;
24147;SDS011;12309;51.450;-2.624;2022-12-07T00:10:37;22.40;;;9.83;;
24147;SDS011;12309;51.450;-2.624;2022-12-07T00:13:02;20.97;;;9.87;;
24147;SDS011;12309;51.450;-2.624;2022-12-07T00:15:28;26.73;;;10.27;;
24147;SDS011;12309;51.450;-2.624;2022-12-07T00:17:54;20.33;;;9.73;;
24147;SDS011;12309;51.450;-2.624;2022-12-07T00:20:20;21.03;;;10.17;;
24147;SDS011;12309;51.450;-2.624;2022-12-07T00:22:45;17.23;;;9.50;;
24147;SDS011;12309;51.450;-2.624;2022-12-07T00:25:11;23.03;;;10.20;;
24147;SDS011;12309;51.450;-2.624;2022-12-07T00:27:37;21.17;;;10.63;;
24147;SDS011;12309;51.450;-2.624;2022-12-07T00:30:02;19.53;;;10.03;;
24147;SDS011;12309;51.450;-2.624;2022-12-07T00:32:28;23.57;;;10.67;;
24147;SDS011;12309;51.450;-2.624;2022-12-07T00:34:54;19.43;;;10.60;;
24147;SDS011;12309;51.450;-2.624;2022-12-07T00:37:20;23.17;;;11.57;;
24147;SDS011;12309;51.450;-2.624;2022-12-07T00:39:46;23.53;;;12.33;;
24147;SDS011;12309;51.450;-2.624;2022-12-07T00:42:11;21.60;;;11.23;;
24147;SDS011;12309;51.450;-2.624;2022-12-07T00:44:37;26.13;;;11.57;;
24147;SDS011;12309;51.450;-2.624;2022-12-07T00:47:03;26.87;;;11.37;;
24147;SDS011;12309;51.450;-2.624;2022-12-07T00:49:29;24.30;;;11.03;;
24147;SDS011;12309;51.450;-2.624;2022-12-07T00:51:56;24.30;;;11.40;;
24147;SDS011;12309;51.450;-2.624;2022-12-07T00:54:22;20.93;;;10.33;;
24147;SDS011;12309;51.450;-2.624;2022-12-07T00:56:47;23.10;;;10.87;;
24147;SDS011;12309;51.450;-2.624;2022-12-07T00:59:13;22.07;;;10.47;;
24147;SDS011;12309;51.450;-2.624;2022-12-07T01:01:40;28.37;;;11.87;;
24147;SDS011;12309;51.450;-2.624;2022-12-07T01:04:06;23.37;;;12.13;;
24147;SDS011;12309;51.450;-2.624;2022-12-07T01:06:32;29.57;;;12.20;;
24147;SDS011;12309;51.450;-2.624;2022-12-07T01:08:58;27.87;;;12.43;;
24147;SDS011;12309;51.450;-2.624;2022-12-07T01:11:25;26.83;;;11.70;;
24147;SDS011;12309;51.450;-2.624;2022-12-07T01:13:53;20.10;;;11.23;;
24147;SDS011;12309;51.450;-2.624;2022-12-07T01:16:20;25.27;;;11.63;;
24147;SDS011;12309;51.450;-2.624;2022-12-07T01:18:48;23.97;;;11.57;;
24147;SDS011;12309;51.450;-2.624;2022-12-07T01:21:17;25.50;;;12.53;;
24147;SDS011;12309;51.450;-2.624;2022-12-07T01:23:45;26.27;;;13.00;;
24147;SDS011;12309;51.450;-2.624;2022-12-07T01:26:12;25.47;;;12.40;;
24147;SDS011;12309;51.450;-2.624;2022-12-07T01:28:40;24.63;;;12.43;;
24147;SDS011;12309;51.450;-2.624;2022-12-07T01:31:07;26.77;;;12.57;;
24147;SDS011;12309;51.450;-2.624;2022-12-07T01:33:37;24.37;;;12.30;;
24147;SDS011;12309;51.450;-2.624;2022-12-07T01:38:46;28.90;;;13.20;;
24147;SDS011;12309;51.450;-2.624;2022-12-07T01:41:14;31.80;;;13.40;;
24147;SDS011;12309;51.450;-2.624;2022-12-07T01:46:44;24.20;;;13.00;;
24147;SDS011;12309;51.450;-2.624;2022-12-07T01:49:16;32.50;;;14.30;;
24147;SDS011;12309;51.450;-2.624;2022-12-07T01:51:46;28.27;;;12.93;;
24147;SDS011;12309;51.450;-2.624;2022-12-07T01:54:14;30.20;;;13.20;;
24147;SDS011;12309;51.450;-2.624;2022-12-07T01:56:41;29.23;;;13.47;;
24147;SDS011;12309;51.450;-2.624;2022-12-07T01:59:14;28.87;;;13.03;;
24147;SDS011;12309;51.450;-2.624;2022-12-07T02:01:41;31.43;;;13.77;;
24147;SDS011;12309;51.450;-2.624;2022-12-07T02:04:07;27.33;;;13.33;;
24147;SDS011;12309;51.450;-2.624;2022-12-07T02:06:33;26.20;;;12.83;;
24147;SDS011;12309;51.450;-2.624;2022-12-07T02:09:01;26.83;;;13.13;;
24147;SDS011;12309;51.450;-2.624;2022-12-07T02:11:27;29.00;;;12.93;;
24147;SDS011;12309;51.450;-2.624;2022-12-07T02:13:53;28.13;;;12.03;;
24147;SDS011;12309;51.450;-2.624;2022-12-07T02:16:32;29.27;;;12.33;;
24147;SDS011;12309;51.450;-2.624;2022-12-07T02:21:48;29.60;;;13.13;;
24147;SDS011;12309;51.450;-2.624;2022-12-07T02:24:37;24.87;;;12.53;;
24147;SDS011;12309;51.450;-2.624;2022-12-07T02:27:22;27.00;;;12.53;;
24147;SDS011;12309;51.450;-2.624;2022-12-07T02:30:02;26.87;;;12.20;;
24147;SDS011;12309;51.450;-2.624;2022-12-07T02:35:06;28.63;;;11.80;;
24147;SDS011;12309;51.450;-2.624;2022-12-07T02:40:27;32.20;;;12.83;;
24147;SDS011;12309;51.450;-2.624;2022-12-07T02:42:55;30.60;;;13.20;;
24147;SDS011;12309;51.450;-2.624;2022-12-07T02:45:27;24.13;;;13.10;;
24147;SDS011;12309;51.450;-2.624;2022-12-07T02:47:56;28.50;;;13.37;;
24147;SDS011;12309;51.450;-2.624;2022-12-07T02:50:24;30.27;;;13.73;;
24147;SDS011;12309;51.450;-2.624;2022-12-07T02:52:50;29.40;;;12.83;;
24147;SDS011;12309;51.450;-2.624;2022-12-07T02:55:17;30.20;;;11.87;;
24147;SDS011;12309;51.450;-2.624;2022-12-07T02:57:53;28.80;;;13.47;;
24147;SDS011;12309;51.450;-2.624;2022-12-07T03:00:52;27.70;;;12.67;;
24147;SDS011;12309;51.450;-2.624;2022-12-07T03:03:37;27.17;;;12.53;;
24147;SDS011;12309;51.450;-2.624;2022-12-07T03:06:10;27.00;;;11.90;;
24147;SDS011;12309;51.450;-2.624;2022-12-07T03:11:25;27.50;;;12.97;;
24147;SDS011;12309;51.450;-2.624;2022-12-07T03:14:02;26.17;;;11.63;;
24147;SDS011;12309;51.450;-2.624;2022-12-07T03:16:40;22.77;;;10.90;;
24147;SDS011;12309;51.450;-2.624;2022-12-07T03:19:17;25.13;;;11.13;;
24147;SDS011;12309;51.450;-2.624;2022-12-07T03:21:46;25.37;;;11.50;;
24147;SDS011;12309;51.450;-2.624;2022-12-07T03:24:21;29.90;;;12.27;;
24147;SDS011;12309;51.450;-2.624;2022-12-07T03:26:49;23.70;;;12.43;;
24147;SDS011;12309;51.450;-2.624;2022-12-07T03:29:19;31.03;;;12.27;;
24147;SDS011;12309;51.450;-2.624;2022-12-07T03:32:00;30.70;;;12.13;;
24147;SDS011;12309;51.450;-2.624;2022-12-07T03:37:24;28.90;;;12.20;;
24147;SDS011;12309;51.450;-2.624;2022-12-07T03:40:02;28.90;;;10.80;;
24147;SDS011;12309;51.450;-2.624;2022-12-07T03:42:29;28.63;;;11.97;;
24147;SDS011;12309;51.450;-2.624;2022-12-07T03:44:56;28.53;;;11.87;;
24147;SDS011;12309;51.450;-2.624;2022-12-07T03:47:37;31.10;;;12.60;;
24147;SDS011;12309;51.450;-2.624;2022-12-07T03:52:46;25.27;;;11.90;;
24147;SDS011;12309;51.450;-2.624;2022-12-07T03:57:45;22.80;;;11.23;;
24147;SDS011;12309;51.450;-2.624;2022-12-07T04:00:14;25.77;;;11.63;;
24147;SDS011;12309;51.450;-2.624;2022-12-07T04:02:40;27.67;;;11.77;;
24147;SDS011;12309;51.450;-2.624;2022-12-07T04:05:07;30.77;;;11.57;;
24147;SDS011;12309;51.450;-2.624;2022-12-07T04:07:33;29.17;;;11.40;;
24147;SDS011;12309;51.450;-2.624;2022-12-07T04:10:00;28.27;;;11.90;;
24147;SDS011;12309;51.450;-2.624;2022-12-07T04:12:26;28.93;;;12.33;;
24147;SDS011;12309;51.450;-2.624;2022-12-07T04:14:52;25.70;;;11.53;;
24147;SDS011;12309;51.450;-2.624;2022-12-07T04:17:18;24.90;;;11.33;;
24147;SDS011;12309;51.450;-2.624;2022-12-07T04:19:44;25.07;;;11.80;;
24147;SDS011;12309;51.450;-2.624;2022-12-07T04:22:10;27.83;;;11.73;;
24147;SDS011;12309;51.450;-2.624;2022-12-07T04:24:36;24.47;;;11.63;;
24147;SDS011;12309;51.450;-2.624;2022-12-07T04:27:01;25.20;;;11.97;;
24147;SDS011;12309;51.450;-2.624;2022-12-07T04:29:27;19.40;;;10.37;;
24147;SDS011;12309;51.450;-2.624;2022-12-07T04:31:53;24.93;;;11.50;;
24147;SDS011;12309;51.450;-2.624;2022-12-07T04:34:19;25.27;;;11.67;;
24147;SDS011;12309;51.450;-2.624;2022-12-07T04:36:45;32.60;;;12.73;;
24147;SDS011;12309;51.450;-2.624;2022-12-07T04:41:51;31.83;;;12.07;;
24147;SDS011;12309;51.450;-2.624;2022-12-07T04:44:17;25.67;;;11.10;;
24147;SDS011;12309;51.450;-2.624;2022-12-07T04:46:43;25.60;;;12.33;;
24147;SDS011;12309;51.450;-2.624;2022-12-07T04:49:09;29.37;;;12.00;;
24147;SDS011;12309;51.450;-2.624;2022-12-07T04:51:35;30.70;;;11.67;;
24147;SDS011;12309;51.450;-2.624;2022-12-07T04:54:01;31.03;;;11.73;;
24147;SDS011;12309;51.450;-2.624;2022-12-07T04:56:27;29.10;;;12.57;;
24147;SDS011;12309;51.450;-2.624;2022-12-07T04:58:54;28.20;;;13.43;;
24147;SDS011;12309;51.450;-2.624;2022-12-07T05:01:20;23.27;;;11.93;;
24147;SDS011;12309;51.450;-2.624;2022-12-07T05:03:47;28.33;;;12.20;;
24147;SDS011;12309;51.450;-2.624;2022-12-07T05:06:13;32.07;;;13.20;;
24147;SDS011;12309;51.450;-2.624;2022-12-07T05:08:40;32.00;;;12.03;;
24147;SDS011;12309;51.450;-2.624;2022-12-07T05:11:06;35.63;;;13.37;;
24147;SDS011;12309;51.450;-2.624;2022-12-07T05:13:32;26.80;;;12.60;;
24147;SDS011;12309;51.450;-2.624;2022-12-07T05:15:58;29.37;;;12.17;;
24147;SDS011;12309;51.450;-2.624;2022-12-07T05:18:24;43.03;;;13.33;;
24147;SDS011;12309;51.450;-2.624;2022-12-07T05:20:50;33.43;;;12.83;;
24147;SDS011;12309;51.450;-2.624;2022-12-07T05:23:17;29.83;;;11.57;;
24147;SDS011;12309;51.450;-2.624;2022-12-07T05:25:43;23.57;;;11.60;;
24147;SDS011;12309;51.450;-2.624;2022-12-07T05:28:09;29.43;;;12.17;;
24147;SDS011;12309;51.450;-2.624;2022-12-07T05:30:35;27.23;;;11.40;;
24147;SDS011;12309;51.450;-2.624;2022-12-07T05:33:01;25.37;;;11.87;;
24147;SDS011;12309;51.450;-2.624;2022-12-07T05:35:27;27.97;;;12.60;;
24147;SDS011;12309;51.450;-2.624;2022-12-07T05:37:54;28.30;;;12.10;;
24147;SDS011;12309;51.450;-2.624;2022-12-07T05:40:20;22.73;;;11.30;;
24147;SDS011;12309;51.450;-2.624;2022-12-07T05:42:46;26.80;;;12.50;;
24147;SDS011;12309;51.450;-2.624;2022-12-07T05:45:12;28.00;;;12.60;;
24147;SDS011;12309;51.450;-2.624;2022-12-07T05:47:37;39.20;;;11.80;;
24147;SDS011;12309;51.450;-2.624;2022-12-07T05:50:04;31.40;;;12.03;;
24147;SDS011;12309;51.450;-2.624;2022-12-07T05:52:30;32.20;;;11.83;;
24147;SDS011;12309;51.450;-2.624;2022-12-07T05:54:56;28.63;;;11.03;;
24147;SDS011;12309;51.450;-2.624;2022-12-07T05:57:22;33.13;;;11.93;;
24147;SDS011;12309;51.450;-2.624;2022-12-07T05:59:48;24.23;;;11.97;;
24147;SDS011;12309;51.450;-2.624;2022-12-07T06:02:14;29.90;;;11.83;;
24147;SDS011;12309;51.450;-2.624;2022-12-07T06:04:45;26.40;;;11.83;;
24147;SDS011;12309;51.450;-2.624;2022-12-07T06:07:12;27.83;;;10.77;;
24147;SDS011;12309;51.450;-2.624;2022-12-07T06:09:38;25.93;;;12.23;;
24147;SDS011;12309;51.450;-2.624;2022-12-07T06:12:05;28.13;;;12.00;;
24147;SDS011;12309;51.450;-2.624;2022-12-07T06:14:50;29.17;;;12.40;;
24147;SDS011;12309;51.450;-2.624;2022-12-07T06:17:16;23.30;;;11.63;;
24147;SDS011;12309;51.450;-2.624;2022-12-07T06:19:42;25.47;;;11.67;;
24147;SDS011;12309;51.450;-2.624;2022-12-07T06:22:08;25.03;;;11.90;;
24147;SDS011;12309;51.450;-2.624;2022-12-07T06:24:36;30.37;;;12.43;;
24147;SDS011;12309;51.450;-2.624;2022-12-07T06:27:02;27.37;;;12.97;;
24147;SDS011;12309;51.450;-2.624;2022-12-07T06:29:28;29.97;;;12.17;;
24147;SDS011;12309;51.450;-2.624;2022-12-07T06:31:54;27.30;;;12.10;;
24147;SDS011;12309;51.450;-2.624;2022-12-07T06:34:21;30.40;;;12.57;;
24147;SDS011;12309;51.450;-2.624;2022-12-07T06:36:48;26.33;;;11.47;;
24147;SDS011;12309;51.450;-2.624;2022-12-07T06:39:17;23.97;;;11.30;;
24147;SDS011;12309;51.450;-2.624;2022-12-07T06:41:43;28.13;;;11.77;;
24147;SDS011;12309;51.450;-2.624;2022-12-07T06:44:09;29.27;;;11.63;;
24147;SDS011;12309;51.450;-2.624;2022-12-07T06:46:35;27.50;;;11.63;;
24147;SDS011;12309;51.450;-2.624;2022-12-07T06:49:02;27.63;;;12.23;;
24147;SDS011;12309;51.450;-2.624;2022-12-07T06:51:28;29.13;;;11.20;;
24147;SDS011;12309;51.450;-2.624;2022-12-07T06:53:54;22.13;;;10.47;;
24147;SDS011;12309;51.450;-2.624;2022-12-07T06:56:20;28.70;;;11.10;;
24147;SDS011;12309;51.450;-2.624;2022-12-07T06:58:47;29.47;;;11.67;;
24147;SDS011;12309;51.450;-2.624;2022-12-07T07:01:14;23.77;;;11.17;;
24147;SDS011;12309;51.450;-2.624;2022-12-07T07:03:41;27.17;;;11.33;;
24147;SDS011;12309;51.450;-2.624;2022-12-07T07:06:08;21.20;;;11.20;;
24147;SDS011;12309;51.450;-2.624;2022-12-07T07:08:35;30.23;;;12.03;;
24147;SDS011;12309;51.450;-2.624;2022-12-07T07:11:01;26.53;;;11.53;;
24147;SDS011;12309;51.450;-2.624;2022-12-07T07:13:27;31.20;;;12.50;;
24147;SDS011;12309;51.450;-2.624;2022-12-07T07:15:52;36.33;;;12.23;;
24147;SDS011;12309;51.450;-2.624;2022-12-07T07:18:18;29.73;;;13.03;;
24147;SDS011;12309;51.450;-2.624;2022-12-07T07:20:44;36.40;;;12.20;;
24147;SDS011;12309;51.450;-2.624;2022-12-07T07:23:10;27.17;;;12.77;;
24147;SDS011;12309;51.450;-2.624;2022-12-07T07:25:35;26.10;;;12.37;;
24147;SDS011;12309;51.450;-2.624;2022-12-07T07:28:01;32.70;;;12.57;;
24147;SDS011;12309;51.450;-2.624;2022-12-07T07:30:27;40.33;;;13.47;;
24147;SDS011;12309;51.450;-2.624;2022-12-07T07:32:56;32.90;;;13.07;;
24147;SDS011;12309;51.450;-2.624;2022-12-07T07:35:23;33.10;;;13.00;;
24147;SDS011;12309;51.450;-2.624;2022-12-07T07:37:49;29.60;;;13.53;;
24147;SDS011;12309;51.450;-2.624;2022-12-07T07:40:14;37.90;;;14.33;;
24147;SDS011;12309;51.450;-2.624;2022-12-07T07:42:40;26.70;;;12.67;;
24147;SDS011;12309;51.450;-2.624;2022-12-07T07:45:07;28.40;;;12.37;;
24147;SDS011;12309;51.450;-2.624;2022-12-07T07:47:34;29.10;;;11.93;;
24147;SDS011;12309;51.450;-2.624;2022-12-07T07:49:59;27.13;;;12.00;;
24147;SDS011;12309;51.450;-2.624;2022-12-07T07:52:25;27.47;;;13.63;;
24147;SDS011;12309;51.450;-2.624;2022-12-07T07:54:51;31.90;;;13.80;;
24147;SDS011;12309;51.450;-2.624;2022-12-07T07:57:17;32.20;;;12.37;;
24147;SDS011;12309;51.450;-2.624;2022-12-07T07:59:43;37.50;;;13.40;;
24147;SDS011;12309;51.450;-2.624;2022-12-07T08:02:12;26.37;;;11.80;;
24147;SDS011;12309;51.450;-2.624;2022-12-07T08:04:40;34.27;;;12.97;;
24147;SDS011;12309;51.450;-2.624;2022-12-07T08:07:06;31.20;;;12.57;;
24147;SDS011;12309;51.450;-2.624;2022-12-07T08:09:32;26.80;;;12.60;;
24147;SDS011;12309;51.450;-2.624;2022-12-07T08:11:58;27.13;;;12.57;;
24147;SDS011;12309;51.450;-2.624;2022-12-07T08:14:24;28.50;;;12.53;;
24147;SDS011;12309;51.450;-2.624;2022-12-07T08:16:52;29.77;;;12.77;;
24147;SDS011;12309;51.450;-2.624;2022-12-07T08:19:18;27.20;;;13.03;;
24147;SDS011;12309;51.450;-2.624;2022-12-07T08:21:44;31.33;;;13.27;;
24147;SDS011;12309;51.450;-2.624;2022-12-07T08:24:10;34.10;;;13.93;;
24147;SDS011;12309;51.450;-2.624;2022-12-07T08:26:36;32.80;;;13.70;;
24147;SDS011;12309;51.450;-2.624;2022-12-07T08:29:02;35.83;;;14.00;;
24147;SDS011;12309;51.450;-2.624;2022-12-07T08:31:28;30.10;;;13.63;;
24147;SDS011;12309;51.450;-2.624;2022-12-07T08:33:54;32.47;;;13.77;;
24147;SDS011;12309;51.450;-2.624;2022-12-07T08:36:20;29.50;;;13.20;;
24147;SDS011;12309;51.450;-2.624;2022-12-07T08:38:47;34.13;;;12.77;;
24147;SDS011;12309;51.450;-2.624;2022-12-07T08:41:13;31.40;;;12.93;;
24147;SDS011;12309;51.450;-2.624;2022-12-07T08:43:40;26.23;;;13.17;;
24147;SDS011;12309;51.450;-2.624;2022-12-07T08:46:25;31.20;;;12.63;;
24147;SDS011;12309;51.450;-2.624;2022-12-07T08:51:18;39.40;;;13.40;;
24147;SDS011;12309;51.450;-2.624;2022-12-07T08:53:44;30.70;;;12.43;;
24147;SDS011;12309;51.450;-2.624;2022-12-07T08:56:10;30.37;;;12.10;;
24147;SDS011;12309;51.450;-2.624;2022-12-07T08:58:36;31.70;;;11.63;;
24147;SDS011;12309;51.450;-2.624;2022-12-07T09:01:03;28.77;;;11.93;;
24147;SDS011;12309;51.450;-2.624;2022-12-07T09:03:29;30.43;;;12.40;;
24147;SDS011;12309;51.450;-2.624;2022-12-07T09:05:55;22.83;;;10.80;;
24147;SDS011;12309;51.450;-2.624;2022-12-07T09:08:22;23.73;;;10.90;;
24147;SDS011;12309;51.450;-2.624;2022-12-07T09:10:51;21.83;;;10.10;;
24147;SDS011;12309;51.450;-2.624;2022-12-07T09:13:17;17.53;;;9.50;;
24147;SDS011;12309;51.450;-2.624;2022-12-07T09:15:43;16.13;;;8.47;;
24147;SDS011;12309;51.450;-2.624;2022-12-07T09:18:09;18.10;;;8.37;;
24147;SDS011;12309;51.450;-2.624;2022-12-07T09:20:35;19.87;;;8.57;;
24147;SDS011;12309;51.450;-2.624;2022-12-07T09:23:01;16.70;;;8.53;;
24147;SDS011;12309;51.450;-2.624;2022-12-07T09:25:27;20.57;;;8.97;;
24147;SDS011;12309;51.450;-2.624;2022-12-07T09:27:56;19.43;;;9.47;;
24147;SDS011;12309;51.450;-2.624;2022-12-07T09:30:23;17.93;;;9.10;;
24147;SDS011;12309;51.450;-2.624;2022-12-07T09:32:49;17.60;;;8.27;;
24147;SDS011;12309;51.450;-2.624;2022-12-07T09:35:15;15.03;;;8.60;;
24147;SDS011;12309;51.450;-2.624;2022-12-07T09:37:41;22.27;;;9.73;;
24147;SDS011;12309;51.450;-2.624;2022-12-07T09:40:07;21.63;;;10.50;;
24147;SDS011;12309;51.450;-2.624;2022-12-07T09:42:34;18.27;;;9.33;;
24147;SDS011;12309;51.450;-2.624;2022-12-07T09:45:52;23.73;;;9.53;;
24147;SDS011;12309;51.450;-2.624;2022-12-07T09:47:59;19.57;;;8.97;;
24147;SDS011;12309;51.450;-2.624;2022-12-07T09:50:26;18.53;;;8.73;;
24147;SDS011;12309;51.450;-2.624;2022-12-07T09:52:54;25.83;;;12.23;;
24147;SDS011;12309;51.450;-2.624;2022-12-07T09:55:30;23.83;;;11.30;;
24147;SDS011;12309;51.450;-2.624;2022-12-07T09:57:56;21.90;;;10.20;;
24147;SDS011;12309;51.450;-2.624;2022-12-07T10:00:23;27.27;;;10.83;;
24147;SDS011;12309;51.450;-2.624;2022-12-07T10:02:55;22.70;;;11.37;;
24147;SDS011;12309;51.450;-2.624;2022-12-07T10:05:24;28.80;;;11.50;;
24147;SDS011;12309;51.450;-2.624;2022-12-07T10:07:57;27.57;;;11.50;;
24147;SDS011;12309;51.450;-2.624;2022-12-07T10:10:24;22.50;;;9.63;;
24147;SDS011;12309;51.450;-2.624;2022-12-07T10:15:23;25.57;;;10.30;;
24147;SDS011;12309;51.450;-2.624;2022-12-07T10:17:50;30.43;;;10.20;;
24147;SDS011;12309;51.450;-2.624;2022-12-07T10:20:21;25.47;;;10.30;;
24147;SDS011;12309;51.450;-2.624;2022-12-07T10:23:05;24.60;;;10.40;;
24147;SDS011;12309;51.450;-2.624;2022-12-07T10:25:38;24.97;;;10.30;;
24147;SDS011;12309;51.450;-2.624;2022-12-07T10:28:11;26.93;;;9.67;;
24147;SDS011;12309;51.450;-2.624;2022-12-07T10:33:35;19.27;;;9.20;;
24147;SDS011;12309;51.450;-2.624;2022-12-07T10:36:25;18.17;;;9.13;;
24147;SDS011;12309;51.450;-2.624;2022-12-07T10:41:27;19.43;;;9.00;;
24147;SDS011;12309;51.450;-2.624;2022-12-07T10:43:54;22.40;;;8.60;;
24147;SDS011;12309;51.450;-2.624;2022-12-07T10:51:46;18.30;;;8.80;;
24147;SDS011;12309;51.450;-2.624;2022-12-07T10:59:58;18.53;;;6.33;;
24147;SDS011;12309;51.450;-2.624;2022-12-07T11:17:56;16.77;;;5.33;;
24147;SDS011;12309;51.450;-2.624;2022-12-07T11:20:19;13.73;;;5.23;;
24147;SDS011;12309;51.450;-2.624;2022-12-07T11:25:41;17.83;;;5.83;;
24147;SDS011;12309;51.450;-2.624;2022-12-07T11:35:57;21.97;;;6.00;;
24147;SDS011;12309;51.450;-2.624;2022-12-07T11:38:49;16.53;;;5.57;;
24147;SDS011;12309;51.450;-2.624;2022-12-07T11:41:22;25.63;;;5.70;;
24147;SDS011;12309;51.450;-2.624;2022-12-07T11:47:05;17.47;;;6.00;;
24147;SDS011;12309;51.450;-2.624;2022-12-07T11:49:47;20.00;;;5.33;;
24147;SDS011;12309;51.450;-2.624;2022-12-07T11:53:05;32.60;;;6.60;;
24147;SDS011;12309;51.450;-2.624;2022-12-07T11:55:19;27.07;;;5.57;;
24147;SDS011;12309;51.450;-2.624;2022-12-07T11:57:53;17.67;;;4.87;;
24147;SDS011;12309;51.450;-2.624;2022-12-07T12:00:25;12.73;;;4.97;;
24147;SDS011;12309;51.450;-2.624;2022-12-07T12:03:07;15.13;;;5.27;;
24147;SDS011;12309;51.450;-2.624;2022-12-07T12:05:37;15.17;;;5.50;;
24147;SDS011;12309;51.450;-2.624;2022-12-07T12:11:06;17.87;;;5.60;;
24147;SDS011;12309;51.450;-2.624;2022-12-07T12:14:00;15.17;;;4.90;;
24147;SDS011;12309;51.450;-2.624;2022-12-07T12:16:56;17.80;;;5.70;;
24147;SDS011;12309;51.450;-2.624;2022-12-07T12:19:42;16.03;;;6.30;;
24147;SDS011;12309;51.450;-2.624;2022-12-07T12:22:26;15.60;;;5.50;;
24147;SDS011;12309;51.450;-2.624;2022-12-07T12:25:04;18.43;;;5.87;;
24147;SDS011;12309;51.450;-2.624;2022-12-07T12:27:36;14.67;;;5.43;;
24147;SDS011;12309;51.450;-2.624;2022-12-07T12:30:05;17.90;;;5.87;;
24147;SDS011;12309;51.450;-2.624;2022-12-07T12:32:42;15.37;;;5.57;;
24147;SDS011;12309;51.450;-2.624;2022-12-07T12:40:53;19.07;;;6.33;;
24147;SDS011;12309;51.450;-2.624;2022-12-07T12:43:39;18.00;;;5.77;;
24147;SDS011;12309;51.450;-2.624;2022-12-07T12:51:45;16.53;;;6.07;;
24147;SDS011;12309;51.450;-2.624;2022-12-07T12:54:23;16.93;;;5.87;;
24147;SDS011;12309;51.450;-2.624;2022-12-07T12:57:05;20.67;;;8.60;;
24147;SDS011;12309;51.450;-2.624;2022-12-07T13:10:25;29.97;;;10.93;;
24147;SDS011;12309;51.450;-2.624;2022-12-07T13:15:43;24.43;;;8.80;;
24147;SDS011;12309;51.450;-2.624;2022-12-07T13:23:25;16.47;;;6.20;;
24147;SDS011;12309;51.450;-2.624;2022-12-07T13:31:45;22.43;;;6.10;;
24147;SDS011;12309;51.450;-2.624;2022-12-07T13:37:02;22.70;;;5.90;;
24147;SDS011;12309;51.450;-2.624;2022-12-07T13:39:54;25.03;;;5.97;;
24147;SDS011;12309;51.450;-2.624;2022-12-07T13:44:52;26.73;;;5.00;;
24147;SDS011;12309;51.450;-2.624;2022-12-07T13:50:27;13.20;;;4.57;;
24147;SDS011;12309;51.450;-2.624;2022-12-07T13:52:56;16.17;;;4.30;;
24147;SDS011;12309;51.450;-2.624;2022-12-07T13:55:23;23.43;;;4.50;;
24147;SDS011;12309;51.450;-2.624;2022-12-07T13:57:49;16.70;;;5.73;;
24147;SDS011;12309;51.450;-2.624;2022-12-07T14:00:18;23.43;;;5.90;;
24147;SDS011;12309;51.450;-2.624;2022-12-07T14:03:00;16.27;;;4.40;;
24147;SDS011;12309;51.450;-2.624;2022-12-07T14:05:27;16.60;;;5.37;;
24147;SDS011;12309;51.450;-2.624;2022-12-07T14:16:00;10.87;;;3.90;;
24147;SDS011;12309;51.450;-2.624;2022-12-07T14:18:29;11.20;;;3.80;;
24147;SDS011;12309;51.450;-2.624;2022-12-07T14:23:36;13.57;;;3.67;;
24147;SDS011;12309;51.450;-2.624;2022-12-07T14:26:07;11.80;;;3.87;;
24147;SDS011;12309;51.450;-2.624;2022-12-07T14:28:37;17.33;;;3.40;;
24147;SDS011;12309;51.450;-2.624;2022-12-07T14:31:03;12.27;;;3.50;;
24147;SDS011;12309;51.450;-2.624;2022-12-07T14:33:29;11.27;;;3.57;;
24147;SDS011;12309;51.450;-2.624;2022-12-07T14:35:55;13.87;;;3.83;;
24147;SDS011;12309;51.450;-2.624;2022-12-07T14:38:23;17.83;;;5.47;;
24147;SDS011;12309;51.450;-2.624;2022-12-07T14:40:49;16.43;;;4.47;;
24147;SDS011;12309;51.450;-2.624;2022-12-07T14:43:16;10.43;;;3.43;;
24147;SDS011;12309;51.450;-2.624;2022-12-07T14:45:42;9.23;;;3.30;;
24147;SDS011;12309;51.450;-2.624;2022-12-07T14:48:15;9.13;;;2.73;;
24147;SDS011;12309;51.450;-2.624;2022-12-07T14:50:42;10.83;;;2.50;;
24147;SDS011;12309;51.450;-2.624;2022-12-07T14:53:12;11.60;;;2.63;;
24147;SDS011;12309;51.450;-2.624;2022-12-07T14:55:39;11.20;;;2.97;;
24147;SDS011;12309;51.450;-2.624;2022-12-07T14:58:05;10.17;;;2.73;;
24147;SDS011;12309;51.450;-2.624;2022-12-07T15:00:31;10.60;;;3.00;;
24147;SDS011;12309;51.450;-2.624;2022-12-07T15:02:58;18.23;;;2.87;;
24147;SDS011;12309;51.450;-2.624;2022-12-07T15:05:24;9.67;;;3.63;;
24147;SDS011;12309;51.450;-2.624;2022-12-07T15:07:50;15.67;;;3.40;;
24147;SDS011;12309;51.450;-2.624;2022-12-07T15:10:27;14.80;;;3.67;;
24147;SDS011;12309;51.450;-2.624;2022-12-07T15:13:00;17.43;;;4.53;;
24147;SDS011;12309;51.450;-2.624;2022-12-07T15:15:45;16.53;;;3.60;;
24147;SDS011;12309;51.450;-2.624;2022-12-07T15:18:12;12.17;;;4.50;;
24147;SDS011;12309;51.450;-2.624;2022-12-07T15:20:38;17.07;;;4.27;;
24147;SDS011;12309;51.450;-2.624;2022-12-07T15:23:04;15.37;;;4.80;;
24147;SDS011;12309;51.450;-2.624;2022-12-07T15:25:30;17.10;;;3.80;;
24147;SDS011;12309;51.450;-2.624;2022-12-07T15:27:56;17.03;;;3.90;;
24147;SDS011;12309;51.450;-2.624;2022-12-07T15:30:22;10.67;;;3.50;;
24147;SDS011;12309;51.450;-2.624;2022-12-07T15:32:51;15.53;;;3.63;;
24147;SDS011;12309;51.450;-2.624;2022-12-07T15:35:17;13.50;;;3.73;;
24147;SDS011;12309;51.450;-2.624;2022-12-07T15:37:43;10.60;;;3.20;;
24147;SDS011;12309;51.450;-2.624;2022-12-07T15:40:09;18.87;;;3.90;;
24147;SDS011;12309;51.450;-2.624;2022-12-07T15:42:36;18.97;;;3.77;;
24147;SDS011;12309;51.450;-2.624;2022-12-07T15:45:02;19.87;;;4.27;;
24147;SDS011;12309;51.450;-2.624;2022-12-07T15:47:35;13.80;;;3.23;;
24147;SDS011;12309;51.450;-2.624;2022-12-07T15:50:03;13.77;;;4.77;;
24147;SDS011;12309;51.450;-2.624;2022-12-07T15:52:30;24.53;;;5.73;;
24147;SDS011;12309;51.450;-2.624;2022-12-07T15:54:56;19.23;;;5.40;;
24147;SDS011;12309;51.450;-2.624;2022-12-07T15:57:21;16.00;;;5.50;;
24147;SDS011;12309;51.450;-2.624;2022-12-07T15:59:47;14.70;;;4.83;;
24147;SDS011;12309;51.450;-2.624;2022-12-07T16:02:13;17.27;;;4.00;;
24147;SDS011;12309;51.450;-2.624;2022-12-07T16:04:39;14.43;;;3.97;;
24147;SDS011;12309;51.450;-2.624;2022-12-07T16:07:05;18.60;;;4.83;;
24147;SDS011;12309;51.450;-2.624;2022-12-07T16:09:31;18.33;;;5.17;;
24147;SDS011;12309;51.450;-2.624;2022-12-07T16:11:57;22.37;;;5.90;;
24147;SDS011;12309;51.450;-2.624;2022-12-07T16:14:23;23.40;;;5.93;;
24147;SDS011;12309;51.450;-2.624;2022-12-07T16:16:49;18.00;;;4.23;;
24147;SDS011;12309;51.450;-2.624;2022-12-07T16:19:15;11.50;;;3.80;;
24147;SDS011;12309;51.450;-2.624;2022-12-07T16:21:41;16.50;;;3.73;;
24147;SDS011;12309;51.450;-2.624;2022-12-07T16:24:07;16.83;;;3.70;;
24147;SDS011;12309;51.450;-2.624;2022-12-07T16:26:35;14.10;;;4.13;;
24147;SDS011;12309;51.450;-2.624;2022-12-07T16:29:00;16.87;;;4.50;;
24147;SDS011;12309;51.450;-2.624;2022-12-07T16:31:27;14.43;;;5.37;;
24147;SDS011;12309;51.450;-2.624;2022-12-07T16:33:53;14.40;;;5.97;;
24147;SDS011;12309;51.450;-2.624;2022-12-07T16:36:21;39.63;;;13.00;;
24147;SDS011;12309;51.450;-2.624;2022-12-07T16:38:49;25.13;;;8.20;;